Time;durP1;ratioP1;P1;durP2;ratioP2;P2;SDS_P1;SDS_P2;PMS_P1;PMS_P2;Temp;Humidity;BMP_temperature;BMP_pressure;BME280_temperature;BME280_humidity;BME280_pressure;Samples;Min_cycle;Max_cycle;Signal;HPM_P1;HPM_P2
2021/07/31 00:00:05;;;;;;;7.63;2.30;;;;;;;;;;1486436;39;20414;-81
2021/07/31 00:01:08;;;;;;;9.20;2.45;;;;;;;;;;1486280;39;20642;-81
2021/07/31 00:02:10;;;;;;;6.00;2.28;;;;;;;;;;1487577;39;20414;-82
2021/07/31 00:03:12;;;;;;;7.38;2.58;;;;;;;;;;1492191;39;20416;-83
2021/07/31 00:04:13;;;;;;;8.20;2.17;;;;;;;;;;1494824;39;20459;-81
2021/07/31 00:05:15;;;;;;;11.77;2.72;;;;;;;;;;1496286;39;20399;-80
2021/07/31 00:06:17;;;;;;;5.35;1.80;;;;;;;;;;1488266;40;20466;-82
2021/07/31 00:07:18;;;;;;;9.07;2.13;;;;;;;;;;1484733;39;20460;-81
2021/07/31 00:08:20;;;;;;;8.23;2.80;;;;;;;;;;1492535;39;20432;-80
2021/07/31 00:09:22;;;;;;;7.70;2.15;;;;;;;;;;1496429;39;20444;-80
2021/07/31 00:10:23;;;;;;;7.73;2.03;;;;;;;;;;1488446;40;20709;-80
2021/07/31 00:11:25;;;;;;;4.18;1.48;;;;;;;;;;1486640;39;20414;-80
2021/07/31 00:12:27;;;;;;;8.18;2.70;;;;;;;;;;1490952;39;20409;-81
2021/07/31 00:13:28;;;;;;;6.45;1.70;;;;;;;;;;1491036;39;21183;-80
2021/07/31 00:14:31;;;;;;;6.38;2.30;;;;;;;;;;1486750;40;20680;-80
2021/07/31 00:15:33;;;;;;;8.05;2.25;;;;;;;;;;1486011;40;20411;-81
2021/07/31 00:16:35;;;;;;;6.28;1.80;;;;;;;;;;1482268;40;20404;-80
2021/07/31 00:17:36;;;;;;;6.50;2.00;;;;;;;;;;1486321;39;20419;-81
2021/07/31 00:18:38;;;;;;;5.93;2.40;;;;;;;;;;1490461;39;20412;-81
2021/07/31 00:19:41;;;;;;;8.52;2.67;;;;;;;;;;1486092;40;20418;-81
2021/07/31 00:20:42;;;;;;;9.07;2.70;;;;;;;;;;1486374;39;20475;-81
2021/07/31 00:21:44;;;;;;;4.90;2.13;;;;;;;;;;1490718;39;20768;-81
2021/07/31 00:22:46;;;;;;;5.65;2.30;;;;;;;;;;1490786;39;20409;-81
2021/07/31 00:23:47;;;;;;;7.20;1.80;;;;;;;;;;1486134;40;20557;-81
2021/07/31 00:24:49;;;;;;;9.95;2.17;;;;;;;;;;1486305;40;20482;-82
2021/07/31 00:25:50;;;;;;;11.52;2.60;;;;;;;;;;1486655;39;20467;-81
2021/07/31 00:26:52;;;;;;;6.00;2.33;;;;;;;;;;1490375;39;20456;-81
2021/07/31 00:27:54;;;;;;;6.80;2.25;;;;;;;;;;1487088;40;20411;-81
2021/07/31 00:28:55;;;;;;;7.20;2.47;;;;;;;;;;1487431;39;20407;-81
2021/07/31 00:29:57;;;;;;;6.38;2.17;;;;;;;;;;1492081;39;20405;-81
2021/07/31 00:30:58;;;;;;;6.90;2.40;;;;;;;;;;1487607;40;20402;-81
2021/07/31 00:32:00;;;;;;;10.15;2.30;;;;;;;;;;1485805;39;20414;-81
2021/07/31 00:33:01;;;;;;;7.72;2.25;;;;;;;;;;1490934;39;20416;-82
2021/07/31 00:34:03;;;;;;;7.93;2.83;;;;;;;;;;1491020;39;20526;-81
2021/07/31 00:35:05;;;;;;;7.50;2.25;;;;;;;;;;1490999;39;20575;-82
2021/07/31 00:36:07;;;;;;;5.85;2.08;;;;;;;;;;1486501;40;20476;-80
2021/07/31 00:37:09;;;;;;;6.78;2.67;;;;;;;;;;1481973;40;20415;-82
2021/07/31 00:38:10;;;;;;;5.80;2.30;;;;;;;;;;1482275;40;20541;-82
2021/07/31 00:39:12;;;;;;;5.00;2.20;;;;;;;;;;1482380;40;20432;-83
2021/07/31 00:40:14;;;;;;;6.90;2.53;;;;;;;;;;1481753;40;20789;-83
2021/07/31 00:41:16;;;;;;;12.88;3.42;;;;;;;;;;1482072;40;20451;-80
2021/07/31 00:42:18;;;;;;;8.00;1.77;;;;;;;;;;1482021;40;20462;-81
2021/07/31 00:43:19;;;;;;;5.65;1.73;;;;;;;;;;1486576;39;20790;-80
2021/07/31 00:44:21;;;;;;;5.57;2.00;;;;;;;;;;1491267;39;20506;-82
2021/07/31 00:45:22;;;;;;;6.95;1.77;;;;;;;;;;1482326;40;20412;-81
2021/07/31 00:46:25;;;;;;;5.95;1.50;;;;;;;;;;1478242;40;20434;-80
2021/07/31 00:47:27;;;;;;;7.68;1.90;;;;;;;;;;1485983;39;20389;-81
2021/07/31 00:48:28;;;;;;;6.65;2.05;;;;;;;;;;1494483;39;20433;-83
2021/07/31 00:49:30;;;;;;;7.28;2.70;;;;;;;;;;1494767;39;20412;-80
2021/07/31 00:50:32;;;;;;;5.20;2.17;;;;;;;;;;1483528;40;20405;-81
2021/07/31 00:51:34;;;;;;;7.28;2.05;;;;;;;;;;1483207;39;20416;-80
2021/07/31 00:52:37;;;;;;;7.75;2.13;;;;;;;;;;1492949;39;20495;-80
2021/07/31 00:53:39;;;;;;;6.18;1.65;;;;;;;;;;1495403;39;20417;-82
2021/07/31 00:54:40;;;;;;;6.13;2.03;;;;;;;;;;1492090;40;20430;-81
2021/07/31 00:55:42;;;;;;;8.18;2.55;;;;;;;;;;1487837;40;20436;-80
2021/07/31 00:56:45;;;;;;;13.00;2.88;;;;;;;;;;1486221;39;20465;-80
2021/07/31 00:57:47;;;;;;;10.07;2.40;;;;;;;;;;1492193;39;20408;-80
2021/07/31 00:58:49;;;;;;;7.78;2.45;;;;;;;;;;1487966;40;20533;-80
2021/07/31 00:59:50;;;;;;;6.78;1.90;;;;;;;;;;1483880;40;20502;-79
2021/07/31 01:00:52;;;;;;;4.80;1.70;;;;;;;;;;1483466;39;20453;-80
2021/07/31 01:01:54;;;;;;;5.47;1.90;;;;;;;;;;1490967;39;20389;-81
2021/07/31 01:02:56;;;;;;;6.65;2.03;;;;;;;;;;1486919;40;20464;-80
2021/07/31 01:04:00;;;;;;;9.27;2.85;;;;;;;;;;1487018;39;20769;-80
2021/07/31 01:05:03;;;;;;;7.95;2.33;;;;;;;;;;1491048;39;20397;-80
2021/07/31 01:06:04;;;;;;;4.45;1.92;;;;;;;;;;1490920;39;20409;-80
2021/07/31 01:07:06;;;;;;;10.77;3.05;;;;;;;;;;1495207;39;20431;-80
2021/07/31 01:08:08;;;;;;;7.38;2.15;;;;;;;;;;1490763;39;20419;-80
2021/07/31 01:09:10;;;;;;;8.73;2.35;;;;;;;;;;1486289;39;20466;-81
2021/07/31 01:10:12;;;;;;;6.97;2.25;;;;;;;;;;1490653;39;20398;-83
2021/07/31 01:11:15;;;;;;;9.93;2.67;;;;;;;;;;1486137;39;20434;-82
2021/07/31 01:12:17;;;;;;;10.55;2.88;;;;;;;;;;1486087;39;20399;-81
2021/07/31 01:13:19;;;;;;;7.85;2.50;;;;;;;;;;1486142;39;20419;-80
2021/07/31 01:14:21;;;;;;;6.80;2.50;;;;;;;;;;1490626;39;20421;-81
2021/07/31 01:15:23;;;;;;;9.13;2.53;;;;;;;;;;1490729;39;20397;-81
2021/07/31 01:16:25;;;;;;;9.00;2.83;;;;;;;;;;1481922;40;20706;-81
2021/07/31 01:17:27;;;;;;;8.35;3.10;;;;;;;;;;1482266;39;20530;-81
2021/07/31 01:18:29;;;;;;;5.75;2.45;;;;;;;;;;1490448;39;20397;-82
2021/07/31 01:19:30;;;;;;;4.63;2.40;;;;;;;;;;1495290;39;20553;-80
2021/07/31 01:20:32;;;;;;;8.25;2.50;;;;;;;;;;1490170;39;21238;-81
2021/07/31 01:21:38;;;;;;;10.93;2.60;;;;;;;;;;1486180;40;20407;-80
2021/07/31 01:22:39;;;;;;;7.82;2.63;;;;;;;;;;1486666;39;20466;-81
2021/07/31 01:23:41;;;;;;;6.72;2.25;;;;;;;;;;1485824;40;20465;-80
2021/07/31 01:24:42;;;;;;;9.10;2.35;;;;;;;;;;1482235;40;20477;-81
2021/07/31 01:25:44;;;;;;;10.30;3.17;;;;;;;;;;1486217;39;20476;-80
2021/07/31 01:26:48;;;;;;;7.15;2.67;;;;;;;;;;1490303;39;20527;-81
2021/07/31 01:27:50;;;;;;;7.80;2.80;;;;;;;;;;1483960;40;20893;-80
2021/07/31 01:28:51;;;;;;;9.18;2.70;;;;;;;;;;1486020;40;20464;-81
2021/07/31 01:29:53;;;;;;;9.35;3.40;;;;;;;;;;1485980;40;20415;-82
2021/07/31 01:30:54;;;;;;;8.25;2.65;;;;;;;;;;1481929;40;20405;-80
2021/07/31 01:31:56;;;;;;;7.90;3.13;;;;;;;;;;1486279;40;20763;-81
2021/07/31 01:32:58;;;;;;;7.93;3.40;;;;;;;;;;1482025;40;20407;-81
2021/07/31 01:34:00;;;;;;;12.02;3.90;;;;;;;;;;1477911;40;20457;-81
2021/07/31 01:35:02;;;;;;;13.50;3.75;;;;;;;;;;1482181;40;20412;-80
2021/07/31 01:36:06;;;;;;;8.20;3.95;;;;;;;;;;1477655;40;20453;-81
2021/07/31 01:37:07;;;;;;;11.02;3.70;;;;;;;;;;1473845;40;20892;-80
2021/07/31 01:38:09;;;;;;;8.90;3.80;;;;;;;;;;1469832;40;20449;-82
2021/07/31 01:39:11;;;;;;;9.32;3.60;;;;;;;;;;1473886;40;20800;-83
2021/07/31 01:40:13;;;;;;;11.77;3.83;;;;;;;;;;1473723;40;20412;-83
2021/07/31 01:41:15;;;;;;;10.30;3.75;;;;;;;;;;1473744;40;20861;-81
2021/07/31 01:42:17;;;;;;;10.32;3.90;;;;;;;;;;1477587;40;20446;-82
2021/07/31 01:43:19;;;;;;;10.52;4.07;;;;;;;;;;1482022;40;20481;-82
2021/07/31 01:44:20;;;;;;;12.13;4.07;;;;;;;;;;1477392;40;20808;-81
2021/07/31 01:45:25;;;;;;;8.45;4.20;;;;;;;;;;1477289;40;20533;-80
2021/07/31 01:46:27;;;;;;;11.55;4.55;;;;;;;;;;1481781;40;20448;-80
2021/07/31 01:47:29;;;;;;;15.23;5.40;;;;;;;;;;1485730;40;20411;-80
2021/07/31 01:48:31;;;;;;;13.50;4.78;;;;;;;;;;1485661;40;20403;-81
2021/07/31 01:49:32;;;;;;;15.68;5.53;;;;;;;;;;1485824;40;20581;-82
2021/07/31 01:50:34;;;;;;;15.85;5.15;;;;;;;;;;1485745;40;20960;-80
2021/07/31 01:51:36;;;;;;;11.55;4.90;;;;;;;;;;1485913;40;20407;-80
2021/07/31 01:52:37;;;;;;;14.23;5.22;;;;;;;;;;1485777;40;20529;-81
2021/07/31 01:53:39;;;;;;;12.82;4.72;;;;;;;;;;1481523;40;20416;-81
2021/07/31 01:54:41;;;;;;;8.25;4.28;;;;;;;;;;1482019;40;20482;-82
2021/07/31 01:55:42;;;;;;;13.70;4.13;;;;;;;;;;1485943;40;20433;-81
2021/07/31 01:56:47;;;;;;;10.70;4.10;;;;;;;;;;1484058;40;20869;-81
2021/07/31 01:57:48;;;;;;;14.35;4.30;;;;;;;;;;1477581;40;20821;-81
2021/07/31 01:58:50;;;;;;;10.32;3.80;;;;;;;;;;1473227;40;20466;-82
2021/07/31 01:59:52;;;;;;;15.43;4.65;;;;;;;;;;1477640;40;20404;-81
2021/07/31 02:00:55;;;;;;;17.00;4.15;;;;;;;;;;1473426;40;20392;-81
2021/07/31 02:01:57;;;;;;;12.85;4.50;;;;;;;;;;1477688;40;20406;-80
2021/07/31 02:02:59;;;;;;;17.50;5.35;;;;;;;;;;1481591;40;20413;-83
2021/07/31 02:04:01;;;;;;;13.98;5.68;;;;;;;;;;1481520;40;20790;-81
2021/07/31 02:05:02;;;;;;;15.13;4.97;;;;;;;;;;1481431;40;20471;-82
2021/07/31 02:06:04;;;;;;;12.80;4.88;;;;;;;;;;1477758;40;20481;-81
2021/07/31 02:07:05;;;;;;;13.65;5.55;;;;;;;;;;1473579;40;20412;-81
2021/07/31 02:08:07;;;;;;;15.65;4.95;;;;;;;;;;1477598;40;20446;-81
2021/07/31 02:09:09;;;;;;;14.25;4.60;;;;;;;;;;1482123;40;20519;-81
2021/07/31 02:10:10;;;;;;;10.40;4.57;;;;;;;;;;1477120;40;20778;-83
2021/07/31 02:11:13;;;;;;;13.40;4.80;;;;;;;;;;1477877;40;20418;-84
2021/07/31 02:12:15;;;;;;;11.90;4.03;;;;;;;;;;1477457;40;20405;-82
2021/07/31 02:13:16;;;;;;;10.55;4.78;;;;;;;;;;1477442;40;20410;-81
2021/07/31 02:14:18;;;;;;;16.95;5.57;;;;;;;;;;1481590;40;20424;-81
2021/07/31 02:15:20;;;;;;;12.35;4.82;;;;;;;;;;1477860;40;20409;-81
2021/07/31 02:16:26;;;;;;;14.07;5.57;;;;;;;;;;1481345;40;20864;-81
2021/07/31 02:17:27;;;;;;;17.20;5.45;;;;;;;;;;1481719;40;20408;-81
2021/07/31 02:18:30;;;;;;;20.33;5.38;;;;;;;;;;1481865;40;20409;-81
2021/07/31 02:19:32;;;;;;;15.25;5.55;;;;;;;;;;1481549;40;20428;-81
2021/07/31 02:20:34;;;;;;;14.93;4.97;;;;;;;;;;1481397;40;20973;-82
2021/07/31 02:21:36;;;;;;;15.73;4.93;;;;;;;;;;1482370;40;20757;-81
2021/07/31 02:22:38;;;;;;;12.25;4.90;;;;;;;;;;1477479;40;20414;-81
2021/07/31 02:23:39;;;;;;;11.57;4.82;;;;;;;;;;1477787;40;20474;-81
2021/07/31 02:24:41;;;;;;;13.65;5.25;;;;;;;;;;1477480;40;20414;-81
2021/07/31 02:25:42;;;;;;;11.10;4.78;;;;;;;;;;1477778;40;20404;-81
2021/07/31 02:26:44;;;;;;;14.20;5.45;;;;;;;;;;1481786;40;20552;-81
2021/07/31 02:27:45;;;;;;;16.48;5.43;;;;;;;;;;1482907;40;20414;-82
2021/07/31 02:28:47;;;;;;;15.52;5.57;;;;;;;;;;1481810;40;20769;-80
2021/07/31 02:29:49;;;;;;;9.55;4.75;;;;;;;;;;1485640;40;20807;-81
2021/07/31 02:30:50;;;;;;;14.65;5.30;;;;;;;;;;1485759;40;20441;-81
2021/07/31 02:31:53;;;;;;;14.80;4.78;;;;;;;;;;1485822;40;20426;-81
2021/07/31 02:32:54;;;;;;;15.07;4.93;;;;;;;;;;1486350;39;20901;-81
2021/07/31 02:33:56;;;;;;;10.50;4.20;;;;;;;;;;1485897;40;20823;-81
2021/07/31 02:34:58;;;;;;;13.73;4.43;;;;;;;;;;1481423;40;20579;-81
2021/07/31 02:36:03;;;;;;;13.57;4.40;;;;;;;;;;1477852;40;20487;-80
2021/07/31 02:37:05;;;;;;;13.07;4.65;;;;;;;;;;1486069;40;20443;-81
2021/07/31 02:38:07;;;;;;;13.50;4.83;;;;;;;;;;1485938;40;20556;-81
2021/07/31 02:39:08;;;;;;;8.73;4.53;;;;;;;;;;1485869;40;20466;-81
2021/07/31 02:40:10;;;;;;;10.52;4.10;;;;;;;;;;1487725;40;20527;-83
2021/07/31 02:41:12;;;;;;;8.02;3.83;;;;;;;;;;1488078;40;20407;-83
2021/07/31 02:42:15;;;;;;;10.35;3.92;;;;;;;;;;1487938;40;20439;-83
2021/07/31 02:43:16;;;;;;;7.05;3.78;;;;;;;;;;1488053;39;20411;-81
2021/07/31 02:44:18;;;;;;;12.45;4.25;;;;;;;;;;1493580;39;20997;-81
2021/07/31 02:45:20;;;;;;;15.68;4.53;;;;;;;;;;1491411;39;20433;-81
2021/07/31 02:46:21;;;;;;;11.45;4.03;;;;;;;;;;1490318;39;20825;-81
2021/07/31 02:47:23;;;;;;;11.05;4.03;;;;;;;;;;1490278;39;20822;-80
2021/07/31 02:48:24;;;;;;;9.90;3.75;;;;;;;;;;1490637;39;20470;-80
2021/07/31 02:49:26;;;;;;;13.73;4.00;;;;;;;;;;1482027;40;21135;-80
2021/07/31 02:50:28;;;;;;;11.80;4.40;;;;;;;;;;1482196;39;20412;-80
2021/07/31 02:51:29;;;;;;;11.73;3.92;;;;;;;;;;1481739;40;20825;-82
2021/07/31 02:52:31;;;;;;;13.50;3.67;;;;;;;;;;1481984;39;20490;-81
2021/07/31 02:53:33;;;;;;;9.35;3.92;;;;;;;;;;1485506;39;20882;-81
2021/07/31 02:54:34;;;;;;;16.77;4.45;;;;;;;;;;1489806;39;20457;-83
2021/07/31 02:55:36;;;;;;;10.60;3.67;;;;;;;;;;1485620;40;20419;-80
2021/07/31 02:56:38;;;;;;;12.80;3.70;;;;;;;;;;1485595;39;20445;-81
2021/07/31 02:57:39;;;;;;;6.53;3.67;;;;;;;;;;1490439;39;20420;-81
2021/07/31 02:58:41;;;;;;;12.18;3.80;;;;;;;;;;1489949;39;20449;-81
2021/07/31 02:59:43;;;;;;;11.15;4.00;;;;;;;;;;1485896;39;20519;-82
2021/07/31 03:00:44;;;;;;;11.32;4.05;;;;;;;;;;1486136;39;20399;-81
2021/07/31 03:01:46;;;;;;;10.70;3.63;;;;;;;;;;1485395;39;20500;-81
2021/07/31 03:02:48;;;;;;;13.95;4.13;;;;;;;;;;1485782;39;20787;-80
2021/07/31 03:03:50;;;;;;;9.70;3.72;;;;;;;;;;1485645;39;20499;-81
2021/07/31 03:04:51;;;;;;;9.02;3.45;;;;;;;;;;1481453;40;20482;-81
2021/07/31 03:05:58;;;;;;;7.45;3.53;;;;;;;;;;1477449;40;20425;-80
2021/07/31 03:06:59;;;;;;;7.10;3.88;;;;;;;;;;1482251;39;20467;-80
2021/07/31 03:08:01;;;;;;;8.00;3.00;;;;;;;;;;1489711;39;20424;-81
2021/07/31 03:09:02;;;;;;;8.88;3.15;;;;;;;;;;1485604;40;20419;-81
2021/07/31 03:10:05;;;;;;;11.30;3.30;;;;;;;;;;1481590;40;20413;-80
2021/07/31 03:11:08;;;;;;;8.88;3.75;;;;;;;;;;1486299;39;20823;-81
2021/07/31 03:12:09;;;;;;;8.93;3.60;;;;;;;;;;1490999;39;20513;-80
2021/07/31 03:13:11;;;;;;;7.45;3.35;;;;;;;;;;1490146;39;20862;-82
2021/07/31 03:14:13;;;;;;;9.30;3.75;;;;;;;;;;1490406;39;20409;-82
2021/07/31 03:15:14;;;;;;;7.40;3.60;;;;;;;;;;1490173;39;20400;-83
2021/07/31 03:16:16;;;;;;;8.35;2.72;;;;;;;;;;1486121;39;20851;-81
2021/07/31 03:17:20;;;;;;;8.35;3.42;;;;;;;;;;1486135;39;20414;-81
2021/07/31 03:18:22;;;;;;;7.75;3.20;;;;;;;;;;1489863;39;20567;-81
2021/07/31 03:19:24;;;;;;;7.35;2.80;;;;;;;;;;1486318;39;20402;-80
2021/07/31 03:20:26;;;;;;;9.63;3.05;;;;;;;;;;1481836;40;20404;-81
2021/07/31 03:21:27;;;;;;;10.13;3.53;;;;;;;;;;1482160;39;20468;-81
2021/07/31 03:22:29;;;;;;;8.13;3.28;;;;;;;;;;1485645;40;21130;-81
2021/07/31 03:23:31;;;;;;;8.25;2.75;;;;;;;;;;1482299;39;20431;-81
2021/07/31 03:24:34;;;;;;;8.82;4.00;;;;;;;;;;1490561;39;20647;-81
2021/07/31 03:25:36;;;;;;;10.50;2.70;;;;;;;;;;1490525;39;21057;-80
2021/07/31 03:26:37;;;;;;;8.10;2.90;;;;;;;;;;1486433;39;20457;-81
2021/07/31 03:27:39;;;;;;;6.93;2.78;;;;;;;;;;1485909;39;20419;-81
2021/07/31 03:28:41;;;;;;;10.65;2.67;;;;;;;;;;1481732;40;20950;-82
2021/07/31 03:29:42;;;;;;;10.85;3.13;;;;;;;;;;1486651;39;20464;-81
2021/07/31 03:30:45;;;;;;;8.30;3.10;;;;;;;;;;1490514;39;20461;-81
2021/07/31 03:31:50;;;;;;;9.02;3.20;;;;;;;;;;1490721;39;20421;-82
2021/07/31 03:32:53;;;;;;;7.82;3.35;;;;;;;;;;1492594;39;20519;-81
2021/07/31 03:33:55;;;;;;;6.57;3.83;;;;;;;;;;1492845;39;20818;-81
2021/07/31 03:34:56;;;;;;;10.27;3.50;;;;;;;;;;1492917;39;20420;-80
2021/07/31 03:35:58;;;;;;;9.00;2.80;;;;;;;;;;1493257;39;20718;-80
2021/07/31 03:37:01;;;;;;;4.70;2.30;;;;;;;;;;1494143;39;20511;-82
2021/07/31 03:38:03;;;;;;;5.05;2.40;;;;;;;;;;1495350;39;20437;-81
2021/07/31 03:39:05;;;;;;;8.45;2.22;;;;;;;;;;1490302;40;20535;-82
2021/07/31 03:40:07;;;;;;;6.15;1.70;;;;;;;;;;1490290;39;20844;-81
2021/07/31 03:41:09;;;;;;;5.80;1.60;;;;;;;;;;1485333;40;20472;-80
2021/07/31 03:42:10;;;;;;;6.43;1.77;;;;;;;;;;1485949;39;20442;-81
2021/07/31 03:43:13;;;;;;;6.95;2.00;;;;;;;;;;1493761;39;20408;-83
2021/07/31 03:44:15;;;;;;;3.90;1.70;;;;;;;;;;1493779;39;20404;-82
2021/07/31 03:45:17;;;;;;;3.63;1.90;;;;;;;;;;1492697;39;20419;-80
2021/07/31 03:46:20;;;;;;;7.93;2.22;;;;;;;;;;1487192;39;20398;-81
2021/07/31 03:47:21;;;;;;;5.47;1.60;;;;;;;;;;1487183;39;20473;-81
2021/07/31 03:48:23;;;;;;;4.30;1.90;;;;;;;;;;1491403;39;20798;-81
2021/07/31 03:49:24;;;;;;;4.00;2.25;;;;;;;;;;1491832;39;20486;-80
2021/07/31 03:50:26;;;;;;;8.75;3.13;;;;;;;;;;1491928;39;20539;-80
2021/07/31 03:51:28;;;;;;;4.82;1.80;;;;;;;;;;1491504;39;21114;-80
2021/07/31 03:52:29;;;;;;;5.63;1.50;;;;;;;;;;1491081;39;20772;-80
2021/07/31 03:53:31;;;;;;;4.63;1.40;;;;;;;;;;1491047;39;20780;-80
2021/07/31 03:54:36;;;;;;;3.63;1.50;;;;;;;;;;1486732;40;20435;-80
2021/07/31 03:55:37;;;;;;;4.70;1.23;;;;;;;;;;1479045;40;20393;-80
2021/07/31 03:56:39;;;;;;;5.72;1.70;;;;;;;;;;1486392;39;20409;-80
2021/07/31 03:57:40;;;;;;;3.90;1.60;;;;;;;;;;1489241;39;20417;-81
2021/07/31 03:58:42;;;;;;;3.88;1.92;;;;;;;;;;1485932;39;21000;-80
2021/07/31 03:59:44;;;;;;;7.15;2.20;;;;;;;;;;1490408;39;20496;-81
2021/07/31 04:00:45;;;;;;;4.55;1.48;;;;;;;;;;1490563;39;20404;-80
2021/07/31 04:01:47;;;;;;;4.47;1.90;;;;;;;;;;1490666;39;20703;-81
2021/07/31 04:02:49;;;;;;;7.75;1.70;;;;;;;;;;1489958;39;20402;-80
2021/07/31 04:03:51;;;;;;;4.10;1.52;;;;;;;;;;1486341;39;20586;-80
2021/07/31 04:04:53;;;;;;;3.53;1.52;;;;;;;;;;1490386;39;20472;-80
2021/07/31 04:05:55;;;;;;;4.07;1.35;;;;;;;;;;1489921;39;20420;-80
2021/07/31 04:06:59;;;;;;;4.70;1.30;;;;;;;;;;1490137;39;20817;-80
2021/07/31 04:08:01;;;;;;;7.55;1.85;;;;;;;;;;1490697;39;20881;-80
2021/07/31 04:09:04;;;;;;;4.57;1.38;;;;;;;;;;1490633;39;20401;-81
2021/07/31 04:10:06;;;;;;;3.65;1.60;;;;;;;;;;1486218;40;20481;-80
2021/07/31 04:11:08;;;;;;;3.00;1.13;;;;;;;;;;1486275;39;20540;-80
2021/07/31 04:12:10;;;;;;;3.20;1.30;;;;;;;;;;1490928;39;20533;-81
2021/07/31 04:13:11;;;;;;;4.80;1.55;;;;;;;;;;1490437;39;20904;-82
2021/07/31 04:14:13;;;;;;;7.95;1.60;;;;;;;;;;1490874;39;20678;-83
2021/07/31 04:15:14;;;;;;;5.03;1.35;;;;;;;;;;1490047;39;20409;-83
2021/07/31 04:16:16;;;;;;;3.88;1.20;;;;;;;;;;1486011;39;20545;-84
2021/07/31 04:17:18;;;;;;;5.78;2.10;;;;;;;;;;1486002;39;21146;-81
2021/07/31 04:18:19;;;;;;;6.33;1.83;;;;;;;;;;1490127;39;20485;-83
2021/07/31 04:19:21;;;;;;;2.72;1.15;;;;;;;;;;1490078;39;20397;-81
2021/07/31 04:20:23;;;;;;;3.28;1.40;;;;;;;;;;1490066;39;20518;-81
2021/07/31 04:21:25;;;;;;;5.72;1.52;;;;;;;;;;1489695;39;20565;-80
2021/07/31 04:22:26;;;;;;;4.25;1.70;;;;;;;;;;1489671;39;20464;-80
2021/07/31 04:23:28;;;;;;;5.18;2.00;;;;;;;;;;1490612;39;20513;-81
2021/07/31 04:24:29;;;;;;;5.43;1.73;;;;;;;;;;1481850;40;20938;-81
2021/07/31 04:25:31;;;;;;;7.03;1.65;;;;;;;;;;1478189;39;20500;-81
2021/07/31 04:26:33;;;;;;;3.78;1.90;;;;;;;;;;1486044;39;20539;-81
2021/07/31 04:27:35;;;;;;;8.75;2.85;;;;;;;;;;1483903;40;20511;-81
2021/07/31 04:28:37;;;;;;;4.35;1.88;;;;;;;;;;1481656;40;20424;-82
2021/07/31 04:29:39;;;;;;;3.30;1.77;;;;;;;;;;1478151;40;20472;-80
2021/07/31 04:30:41;;;;;;;6.95;3.03;;;;;;;;;;1486179;40;20415;-81
2021/07/31 04:31:44;;;;;;;5.90;2.15;;;;;;;;;;1485474;40;20848;-81
2021/07/31 04:32:45;;;;;;;5.45;2.03;;;;;;;;;;1481999;40;20393;-80
2021/07/31 04:33:47;;;;;;;5.55;1.92;;;;;;;;;;1477565;40;20482;-81
2021/07/31 04:34:49;;;;;;;7.15;2.17;;;;;;;;;;1477954;40;20437;-80
2021/07/31 04:35:57;;;;;;;5.25;2.08;;;;;;;;;;1477600;40;20425;-80
2021/07/31 04:36:59;;;;;;;7.40;2.47;;;;;;;;;;1482971;39;20381;-81
2021/07/31 04:38:02;;;;;;;6.93;1.85;;;;;;;;;;1486008;40;20480;-81
2021/07/31 04:39:05;;;;;;;6.28;2.30;;;;;;;;;;1477677;40;20410;-80
2021/07/31 04:40:08;;;;;;;6.25;2.88;;;;;;;;;;1482368;40;20466;-81
2021/07/31 04:41:09;;;;;;;6.55;2.25;;;;;;;;;;1486366;39;20431;-81
2021/07/31 04:42:11;;;;;;;4.10;1.67;;;;;;;;;;1486321;39;20537;-81
2021/07/31 04:43:12;;;;;;;5.03;2.25;;;;;;;;;;1486450;39;20486;-84
2021/07/31 04:44:14;;;;;;;5.13;1.85;;;;;;;;;;1485895;40;20450;-83
2021/07/31 04:45:16;;;;;;;5.40;2.40;;;;;;;;;;1481798;40;20520;-83
2021/07/31 04:46:17;;;;;;;5.00;2.45;;;;;;;;;;1481575;40;20928;-81
2021/07/31 04:47:19;;;;;;;7.82;1.88;;;;;;;;;;1486087;40;20406;-80
2021/07/31 04:48:21;;;;;;;7.15;2.20;;;;;;;;;;1486168;40;20437;-81
2021/07/31 04:49:22;;;;;;;8.55;2.88;;;;;;;;;;1486421;39;20929;-81
2021/07/31 04:50:24;;;;;;;4.93;1.98;;;;;;;;;;1485934;40;20411;-81
2021/07/31 04:51:26;;;;;;;5.55;2.15;;;;;;;;;;1485813;40;20836;-81
2021/07/31 04:52:27;;;;;;;8.30;2.38;;;;;;;;;;1485942;40;21090;-81
2021/07/31 04:53:29;;;;;;;11.35;2.92;;;;;;;;;;1486168;40;20462;-81
2021/07/31 04:54:31;;;;;;;5.60;2.28;;;;;;;;;;1486530;39;20422;-81
2021/07/31 04:55:33;;;;;;;6.95;2.28;;;;;;;;;;1486039;39;20431;-81
2021/07/31 04:56:34;;;;;;;5.75;2.72;;;;;;;;;;1485997;40;20407;-83
2021/07/31 04:57:36;;;;;;;9.70;2.80;;;;;;;;;;1486280;39;20486;-81
2021/07/31 04:58:39;;;;;;;9.65;2.53;;;;;;;;;;1477761;40;20418;-80
2021/07/31 04:59:40;;;;;;;4.68;2.42;;;;;;;;;;1477606;40;20414;-81
2021/07/31 05:00:42;;;;;;;5.85;2.28;;;;;;;;;;1477724;40;20410;-80
2021/07/31 05:01:43;;;;;;;4.15;2.20;;;;;;;;;;1481932;40;20408;-80
2021/07/31 05:02:45;;;;;;;8.35;2.35;;;;;;;;;;1481691;40;20400;-80
2021/07/31 05:03:47;;;;;;;5.32;1.70;;;;;;;;;;1486039;40;20892;-80
2021/07/31 05:04:50;;;;;;;7.60;2.40;;;;;;;;;;1485984;40;20874;-80
2021/07/31 05:05:51;;;;;;;7.28;2.33;;;;;;;;;;1481874;40;20448;-81
2021/07/31 05:06:53;;;;;;;6.78;2.30;;;;;;;;;;1481721;40;20732;-80
2021/07/31 05:07:55;;;;;;;5.15;2.25;;;;;;;;;;1486117;40;20407;-81
2021/07/31 05:08:57;;;;;;;4.53;2.33;;;;;;;;;;1486519;39;20417;-80
2021/07/31 05:09:59;;;;;;;5.20;1.77;;;;;;;;;;1485762;40;20882;-81
2021/07/31 05:11:06;;;;;;;6.68;2.50;;;;;;;;;;1486045;40;20484;-81
2021/07/31 05:12:08;;;;;;;5.57;1.75;;;;;;;;;;1486736;39;20476;-81
2021/07/31 05:13:10;;;;;;;5.93;2.10;;;;;;;;;;1482587;40;20456;-80
2021/07/31 05:14:13;;;;;;;5.65;1.95;;;;;;;;;;1483791;40;20427;-82
2021/07/31 05:15:15;;;;;;;5.57;1.83;;;;;;;;;;1484428;40;20426;-83
2021/07/31 05:16:18;;;;;;;6.25;1.88;;;;;;;;;;1484486;40;20467;-83
2021/07/31 05:17:20;;;;;;;3.75;1.70;;;;;;;;;;1489128;39;20406;-81
2021/07/31 05:18:21;;;;;;;7.00;1.92;;;;;;;;;;1485043;40;20416;-80
2021/07/31 05:19:24;;;;;;;6.63;2.47;;;;;;;;;;1482953;39;20512;-81
2021/07/31 05:20:26;;;;;;;5.95;2.05;;;;;;;;;;1486343;40;20820;-80
2021/07/31 05:21:27;;;;;;;4.60;2.03;;;;;;;;;;1482217;40;20735;-80
2021/07/31 05:22:29;;;;;;;3.05;1.42;;;;;;;;;;1482476;40;20409;-81
2021/07/31 05:23:30;;;;;;;3.30;1.60;;;;;;;;;;1482108;40;20787;-80
2021/07/31 05:24:33;;;;;;;5.78;2.08;;;;;;;;;;1487017;39;20477;-80
2021/07/31 05:25:35;;;;;;;4.93;1.90;;;;;;;;;;1481782;40;20489;-80
2021/07/31 05:26:40;;;;;;;5.20;1.83;;;;;;;;;;1478032;40;20414;-80
2021/07/31 05:27:42;;;;;;;5.25;2.17;;;;;;;;;;1484594;39;20376;-81
2021/07/31 05:28:43;;;;;;;5.00;1.40;;;;;;;;;;1490101;39;20432;-81
2021/07/31 05:29:45;;;;;;;4.95;1.67;;;;;;;;;;1489804;39;20523;-81
2021/07/31 05:30:47;;;;;;;3.40;2.20;;;;;;;;;;1490162;39;20413;-81
2021/07/31 05:31:48;;;;;;;5.77;1.77;;;;;;;;;;1490404;39;20530;-81
2021/07/31 05:32:50;;;;;;;4.40;2.20;;;;;;;;;;1490378;39;20405;-81
2021/07/31 05:33:52;;;;;;;6.95;1.55;;;;;;;;;;1485773;40;20406;-80
2021/07/31 05:34:54;;;;;;;3.80;1.50;;;;;;;;;;1486116;39;20418;-81
2021/07/31 05:35:56;;;;;;;3.58;1.30;;;;;;;;;;1490638;39;20531;-81
2021/07/31 05:36:57;;;;;;;6.85;1.70;;;;;;;;;;1490021;39;20416;-81
2021/07/31 05:38:00;;;;;;;5.97;2.10;;;;;;;;;;1489646;39;20401;-81
2021/07/31 05:39:03;;;;;;;3.75;1.70;;;;;;;;;;1489716;39;20413;-81
2021/07/31 05:40:05;;;;;;;3.40;1.25;;;;;;;;;;1490306;39;20401;-81
2021/07/31 05:41:17;;;;;;;4.80;1.85;;;;;;;;;;1489971;39;20404;-80
2021/07/31 05:42:19;;;;;;;5.15;1.88;;;;;;;;;;1486581;39;20474;-81
2021/07/31 05:43:21;;;;;;;5.82;1.60;;;;;;;;;;1489999;39;20667;-81
2021/07/31 05:44:22;;;;;;;3.90;1.90;;;;;;;;;;1489765;39;20476;-81
2021/07/31 05:45:26;;;;;;;4.88;1.98;;;;;;;;;;1490120;39;20453;-81
2021/07/31 05:46:27;;;;;;;6.50;1.77;;;;;;;;;;1490409;39;20507;-81
2021/07/31 05:47:29;;;;;;;6.00;1.50;;;;;;;;;;1490203;39;20413;-80
2021/07/31 05:48:32;;;;;;;3.35;1.52;;;;;;;;;;1485654;40;20479;-81
2021/07/31 05:49:33;;;;;;;4.30;1.87;;;;;;;;;;1481866;40;20540;-82
2021/07/31 05:50:35;;;;;;;5.25;1.90;;;;;;;;;;1477542;40;20697;-81
2021/07/31 05:51:37;;;;;;;5.53;1.50;;;;;;;;;;1481597;39;21189;-81
2021/07/31 05:52:38;;;;;;;5.68;1.50;;;;;;;;;;1481478;40;20464;-81
2021/07/31 05:53:40;;;;;;;9.55;1.60;;;;;;;;;;1485990;39;20592;-80
2021/07/31 05:54:42;;;;;;;7.53;1.73;;;;;;;;;;1490166;39;20428;-81
2021/07/31 05:55:43;;;;;;;3.53;1.50;;;;;;;;;;1485552;40;20449;-81
2021/07/31 05:56:45;;;;;;;5.10;1.60;;;;;;;;;;1481627;39;20452;-81
2021/07/31 05:57:47;;;;;;;7.18;1.50;;;;;;;;;;1481724;40;20563;-81
2021/07/31 05:58:48;;;;;;;5.43;2.03;;;;;;;;;;1485633;39;20422;-82
2021/07/31 05:59:50;;;;;;;4.30;1.40;;;;;;;;;;1490099;39;20421;-80
2021/07/31 06:00:52;;;;;;;4.88;1.20;;;;;;;;;;1485804;39;20399;-81
2021/07/31 06:01:54;;;;;;;4.90;1.58;;;;;;;;;;1485565;39;20811;-81
2021/07/31 06:02:56;;;;;;;3.75;1.48;;;;;;;;;;1481551;40;20408;-81
2021/07/31 06:03:58;;;;;;;3.83;1.40;;;;;;;;;;1477959;40;20402;-81
2021/07/31 06:04:59;;;;;;;3.90;1.63;;;;;;;;;;1481671;39;20520;-81
2021/07/31 06:06:01;;;;;;;4.55;1.20;;;;;;;;;;1485659;39;21020;-81
2021/07/31 06:07:06;;;;;;;4.47;1.60;;;;;;;;;;1490041;39;20420;-81
2021/07/31 06:08:07;;;;;;;4.72;1.45;;;;;;;;;;1489720;39;20405;-81
2021/07/31 06:09:09;;;;;;;4.93;1.30;;;;;;;;;;1486006;39;20422;-81
2021/07/31 06:10:11;;;;;;;5.10;1.35;;;;;;;;;;1486080;39;20442;-80